Terminal Aerodrome Forecast
Issued by NWS Blacksburg, VA

Current Version | Previous Version | Text Only | Print | Product List | Glossary Off
Versions: 1 2 3 4 5 6 7 8 9 10 11 12 13

000
FTUS41 KRNK 131140 AAA
TAFBLF
TAF AMD
KBLF 131140Z 1312/1412 28014G23KT P6SM SKC
     FM132000 23010KT P6SM SCT080
     FM132100 22010KT P6SM BKN080
     FM140300 25015G26KT P6SM SCT060
     FM140900 28016G27KT P6SM BKN030=

USA.gov is the U.S. government's official web portal to all federal, state and local government web resources and services.